createdAt,value
2018-11-06T00:01:55.776Z,8.33
2018-11-06T00:04:29.238Z,8.60
2018-11-06T00:06:56.868Z,10.00
2018-11-06T00:09:24.507Z,9.70
2018-11-06T00:11:52.078Z,8.73
2018-11-06T00:14:19.751Z,9.67
2018-11-06T00:16:47.419Z,9.93
2018-11-06T00:19:14.996Z,8.80
2018-11-06T00:21:42.559Z,8.10
2018-11-06T00:24:10.154Z,9.50
2018-11-06T00:26:37.751Z,8.93
2018-11-06T00:29:05.478Z,9.27
2018-11-06T00:31:33.287Z,9.60
2018-11-06T00:34:00.827Z,10.00
2018-11-06T00:36:28.353Z,9.03
2018-11-06T00:38:55.960Z,10.63
2018-11-06T00:41:23.691Z,9.97
2018-11-06T00:43:51.410Z,9.60
2018-11-06T00:46:19.095Z,9.97
2018-11-06T00:48:46.751Z,10.83
2018-11-06T00:51:14.368Z,9.80
2018-11-06T00:53:41.914Z,7.53
2018-11-06T00:56:09.551Z,8.00
2018-11-06T00:58:37.422Z,8.53
2018-11-06T01:01:05.162Z,10.03
2018-11-06T01:03:38.647Z,8.40
2018-11-06T01:06:06.442Z,9.97
2018-11-06T01:08:34.027Z,9.50
2018-11-06T01:11:01.611Z,8.97
2018-11-06T01:13:29.330Z,9.23
2018-11-06T01:15:56.990Z,10.00
2018-11-06T01:18:24.592Z,9.77
2018-11-06T01:20:52.227Z,10.37
2018-11-06T01:23:19.819Z,9.93
2018-11-06T01:25:47.500Z,9.97
2018-11-06T01:28:15.243Z,9.53
2018-11-06T01:30:42.873Z,8.47
2018-11-06T01:33:10.465Z,9.23
2018-11-06T01:35:39.072Z,9.37
2018-11-06T01:38:06.647Z,8.47
2018-11-06T01:40:34.202Z,8.37
2018-11-06T01:43:01.778Z,9.43
2018-11-06T01:45:29.458Z,8.77
2018-11-06T01:47:57.093Z,9.37
2018-11-06T01:50:24.778Z,9.67
2018-11-06T01:52:52.317Z,10.30
2018-11-06T01:55:19.938Z,8.93
2018-11-06T01:57:47.589Z,9.20
2018-11-06T02:00:16.542Z,9.77
2018-11-06T02:02:44.243Z,8.57
2018-11-06T02:05:12.985Z,7.97
2018-11-06T02:07:41.537Z,8.53
2018-11-06T02:10:10.595Z,7.93
2018-11-06T02:12:38.243Z,9.67
2018-11-06T02:15:06.022Z,7.73
2018-11-06T02:17:33.738Z,9.07
2018-11-06T02:20:01.385Z,9.37
2018-11-06T02:22:29.032Z,10.20
2018-11-06T02:24:56.614Z,9.63
2018-11-06T02:27:24.197Z,9.47
2018-11-06T02:29:51.846Z,8.27
2018-11-06T02:32:19.698Z,8.63
2018-11-06T02:34:47.243Z,9.37
2018-11-06T02:37:14.902Z,9.17
2018-11-06T02:39:42.477Z,9.77
2018-11-06T02:42:10.150Z,8.77
2018-11-06T02:44:37.829Z,9.47
2018-11-06T02:47:05.681Z,9.50
2018-11-06T02:49:33.269Z,9.83
2018-11-06T02:52:00.895Z,10.47
2018-11-06T02:54:28.538Z,10.47
2018-11-06T02:56:56.185Z,9.00
2018-11-06T02:59:23.987Z,9.50
2018-11-06T03:01:51.942Z,8.90
2018-11-06T03:04:19.551Z,8.23
2018-11-06T03:06:47.143Z,9.23
2018-11-06T03:09:14.758Z,8.93
2018-11-06T03:11:42.451Z,9.70
2018-11-06T03:14:10.105Z,8.90
2018-11-06T03:16:37.801Z,10.70
2018-11-06T03:19:05.407Z,9.73
2018-11-06T03:21:32.958Z,10.20
2018-11-06T03:24:00.783Z,9.23
2018-11-06T03:26:28.452Z,9.83
2018-11-06T03:28:56.018Z,10.20
2018-11-06T03:31:23.671Z,9.93
2018-11-06T03:33:51.206Z,10.43
2018-11-06T03:36:18.806Z,10.20
2018-11-06T03:38:46.544Z,9.83
2018-11-06T03:41:14.215Z,10.50
2018-11-06T03:43:41.836Z,10.03
2018-11-06T03:46:09.494Z,10.00
2018-11-06T03:48:37.094Z,8.50
2018-11-06T03:51:05.682Z,9.30
2018-11-06T03:53:33.241Z,9.47
2018-11-06T03:56:00.845Z,8.90
2018-11-06T03:58:28.428Z,8.67
2018-11-06T04:00:56.048Z,9.70
2018-11-06T04:03:23.738Z,10.33
2018-11-06T04:05:51.385Z,10.33
2018-11-06T04:08:18.977Z,8.83
2018-11-06T04:10:46.522Z,10.07
2018-11-06T04:13:14.155Z,8.93
2018-11-06T04:15:41.799Z,9.50
2018-11-06T04:18:09.528Z,9.83
2018-11-06T04:20:37.127Z,9.57
2018-11-06T04:23:05.265Z,9.43
2018-11-06T04:25:32.970Z,9.40
2018-11-06T04:28:00.588Z,9.57
2018-11-06T04:30:28.190Z,9.90
2018-11-06T04:32:55.751Z,9.37
2018-11-06T04:35:23.322Z,10.87
2018-11-06T04:37:50.870Z,9.83
2018-11-06T04:40:18.530Z,11.07
2018-11-06T04:42:46.247Z,8.70
2018-11-06T04:45:13.806Z,11.40
2018-11-06T04:47:41.683Z,9.87
2018-11-06T04:50:10.788Z,9.73
2018-11-06T04:52:38.434Z,9.37
2018-11-06T04:55:07.986Z,9.53
2018-11-06T04:57:35.522Z,10.20
2018-11-06T05:00:03.838Z,10.40
2018-11-06T05:02:31.419Z,9.83
2018-11-06T05:04:59.093Z,10.80
2018-11-06T05:07:26.731Z,10.40
2018-11-06T05:09:54.320Z,10.63
2018-11-06T05:12:21.919Z,10.17
2018-11-06T05:14:49.494Z,10.17
2018-11-06T05:17:17.098Z,9.43
2018-11-06T05:19:44.758Z,9.83
2018-11-06T05:22:12.368Z,10.50
2018-11-06T05:24:40.076Z,9.27
2018-11-06T05:27:07.699Z,8.80
2018-11-06T05:29:35.266Z,8.50
2018-11-06T05:32:02.832Z,10.27
2018-11-06T05:34:30.469Z,9.53
2018-11-06T05:36:58.082Z,9.73
2018-11-06T05:39:25.719Z,9.70
2018-11-06T05:41:53.262Z,8.60
2018-11-06T05:44:20.810Z,9.27
2018-11-06T05:46:48.619Z,9.33
2018-11-06T05:49:16.326Z,10.00
2018-11-06T05:51:43.928Z,9.70
2018-11-06T05:54:11.751Z,7.93
2018-11-06T05:56:39.325Z,8.97
2018-11-06T05:59:06.889Z,9.50
2018-11-06T06:01:34.460Z,9.03
2018-11-06T06:04:02.094Z,9.40
2018-11-06T06:06:29.774Z,8.57
2018-11-06T06:08:57.317Z,9.57
2018-11-06T06:11:24.891Z,9.70
2018-11-06T06:13:52.429Z,8.93
2018-11-06T06:16:20.019Z,9.33
2018-11-06T06:18:47.658Z,9.63
2018-11-06T06:21:15.262Z,9.53
2018-11-06T06:23:42.855Z,10.47
2018-11-06T06:26:10.558Z,9.60
2018-11-06T06:28:38.299Z,9.87
2018-11-06T06:31:05.860Z,9.00
2018-11-06T06:33:33.407Z,8.50
2018-11-06T06:36:01.116Z,8.33
2018-11-06T06:38:28.723Z,9.37
2018-11-06T06:40:56.462Z,8.87
2018-11-06T06:43:24.043Z,9.37
2018-11-06T06:45:51.719Z,9.00
2018-11-06T06:48:19.424Z,8.97
2018-11-06T06:50:47.190Z,8.73
2018-11-06T06:53:14.774Z,11.10
2018-11-06T06:55:42.379Z,9.03
2018-11-06T06:58:10.158Z,9.57
2018-11-06T07:00:37.720Z,10.13
2018-11-06T07:03:05.519Z,9.10
2018-11-06T07:05:33.266Z,10.37
2018-11-06T07:08:00.805Z,9.87
2018-11-06T07:10:28.442Z,9.83
2018-11-06T07:12:56.092Z,8.40
2018-11-06T07:15:23.654Z,9.50
2018-11-06T07:17:51.701Z,8.70
2018-11-06T07:20:21.570Z,9.57
2018-11-06T07:22:49.961Z,9.03
2018-11-06T07:25:17.639Z,9.83
2018-11-06T07:27:46.287Z,9.63
2018-11-06T07:30:15.610Z,9.80
2018-11-06T07:32:43.739Z,8.73
2018-11-06T07:35:12.205Z,10.00
2018-11-06T07:37:40.475Z,9.50
2018-11-06T07:40:09.553Z,10.03
2018-11-06T07:42:37.327Z,9.90
2018-11-06T07:45:06.943Z,10.03
2018-11-06T07:47:34.610Z,9.27
2018-11-06T07:50:02.409Z,10.50
2018-11-06T07:52:30.095Z,10.03
2018-11-06T07:54:57.743Z,10.70
2018-11-06T07:57:25.508Z,8.80
2018-11-06T07:59:53.145Z,10.67
2018-11-06T08:02:20.710Z,10.80
2018-11-06T08:04:48.279Z,8.83
2018-11-06T08:07:15.866Z,10.73
2018-11-06T08:09:43.589Z,11.37
2018-11-06T08:12:11.185Z,9.83
2018-11-06T08:14:38.897Z,9.30
2018-11-06T08:17:06.570Z,10.43
2018-11-06T08:19:34.124Z,10.60
2018-11-06T08:22:01.813Z,10.17
2018-11-06T08:24:29.503Z,9.30
2018-11-06T08:26:57.209Z,9.30
2018-11-06T08:29:24.773Z,9.47
2018-11-06T08:31:52.506Z,10.23
2018-11-06T08:34:19.894Z,10.37
2018-11-06T08:36:47.593Z,9.73
2018-11-06T08:39:15.211Z,10.60
2018-11-06T08:41:42.834Z,9.53
2018-11-06T08:44:10.423Z,10.93
2018-11-06T08:46:37.982Z,9.90
2018-11-06T08:49:05.519Z,11.40
2018-11-06T08:51:33.170Z,11.23
2018-11-06T08:54:00.722Z,11.23
2018-11-06T08:56:28.453Z,11.40
2018-11-06T08:58:56.135Z,11.53
2018-11-06T09:01:23.814Z,11.30
2018-11-06T09:03:51.433Z,10.97
2018-11-06T09:06:19.065Z,11.23
2018-11-06T09:08:46.780Z,12.13
2018-11-06T09:11:14.340Z,11.73
2018-11-06T09:13:41.985Z,11.20
2018-11-06T09:16:09.726Z,11.67
2018-11-06T09:18:37.454Z,12.00
2018-11-06T09:21:05.190Z,12.47
2018-11-06T09:23:32.854Z,11.63
2018-11-06T09:26:00.513Z,11.97
2018-11-06T09:28:28.055Z,11.30
2018-11-06T09:30:55.666Z,11.10
2018-11-06T09:33:23.215Z,11.23
2018-11-06T09:35:50.820Z,12.50
2018-11-06T09:38:18.384Z,13.27
2018-11-06T09:40:45.938Z,11.90
2018-11-06T09:43:13.525Z,13.80
2018-11-06T09:45:41.098Z,14.03
2018-11-06T09:48:08.736Z,13.03
2018-11-06T09:50:36.302Z,14.07
2018-11-06T09:53:04.138Z,13.17
2018-11-06T09:55:31.702Z,13.57
2018-11-06T09:57:59.389Z,13.90
2018-11-06T10:00:27.048Z,14.10
2018-11-06T10:02:54.627Z,14.80
2018-11-06T10:05:22.259Z,14.30
2018-11-06T10:07:50.037Z,15.10
2018-11-06T10:10:18.246Z,14.00
2018-11-06T10:12:46.325Z,13.87
2018-11-06T10:15:19.622Z,12.90
2018-11-06T10:17:48.187Z,13.87
2018-11-06T10:20:16.779Z,15.03
2018-11-06T10:22:44.340Z,14.17
2018-11-06T10:25:12.027Z,13.80
2018-11-06T10:27:40.155Z,13.77
2018-11-06T10:30:10.090Z,13.53
2018-11-06T10:32:37.662Z,14.83
2018-11-06T10:35:05.619Z,13.83
2018-11-06T10:37:33.318Z,9.70
2018-11-06T10:40:01.010Z,12.30
2018-11-06T10:42:28.655Z,13.97
2018-11-06T10:44:56.382Z,12.70
2018-11-06T10:47:23.946Z,12.77
2018-11-06T10:49:51.509Z,13.57
2018-11-06T10:52:19.665Z,13.13
2018-11-06T10:54:47.246Z,11.53
2018-11-06T10:57:14.771Z,12.20
2018-11-06T10:59:42.375Z,13.33
2018-11-06T11:02:19.418Z,12.77
2018-11-06T11:04:47.218Z,12.20
2018-11-06T11:07:14.789Z,12.57
2018-11-06T11:09:42.373Z,11.90
2018-11-06T11:12:09.970Z,10.47
2018-11-06T11:14:37.628Z,12.33
2018-11-06T11:17:05.286Z,11.23
2018-11-06T11:19:32.870Z,12.47
2018-11-06T11:22:00.446Z,12.63
2018-11-06T11:24:28.002Z,12.87
2018-11-06T11:26:55.602Z,11.43
2018-11-06T11:29:23.154Z,11.40
2018-11-06T11:31:50.755Z,12.57
2018-11-06T11:34:18.355Z,12.63
2018-11-06T11:36:45.952Z,12.70
2018-11-06T11:39:13.547Z,12.57
2018-11-06T11:41:41.131Z,12.93
2018-11-06T11:44:08.748Z,11.77
2018-11-06T11:46:36.359Z,11.30
2018-11-06T11:49:04.082Z,11.17
2018-11-06T11:51:31.721Z,11.37
2018-11-06T11:53:59.473Z,10.47
2018-11-06T11:56:27.068Z,11.13
2018-11-06T11:58:54.726Z,10.87
2018-11-06T12:01:22.379Z,10.27
2018-11-06T12:03:50.007Z,10.60
2018-11-06T12:06:17.630Z,11.77
2018-11-06T12:08:45.222Z,10.27
2018-11-06T12:11:12.816Z,9.60
2018-11-06T12:13:40.399Z,10.83
2018-11-06T12:16:08.054Z,10.20
2018-11-06T12:18:35.802Z,9.87
2018-11-06T12:21:03.461Z,10.70
2018-11-06T12:23:31.112Z,11.03
2018-11-06T12:25:58.977Z,11.97
2018-11-06T12:28:26.514Z,10.90
2018-11-06T12:30:54.119Z,11.30
2018-11-06T12:33:21.775Z,11.57
2018-11-06T12:35:49.390Z,10.67
2018-11-06T12:38:16.955Z,11.20
2018-11-06T12:40:44.539Z,10.83
2018-11-06T12:43:12.136Z,9.33
2018-11-06T12:45:39.673Z,11.07
2018-11-06T12:48:07.214Z,11.03
2018-11-06T12:50:34.866Z,10.57
2018-11-06T12:53:02.603Z,10.73
2018-11-06T12:55:30.192Z,10.17
2018-11-06T12:57:57.784Z,10.60
2018-11-06T13:00:25.330Z,11.63
2018-11-06T13:02:52.950Z,10.63
2018-11-06T13:05:20.561Z,11.10
2018-11-06T13:07:48.187Z,10.77
2018-11-06T13:10:16.057Z,10.23
2018-11-06T13:12:43.934Z,9.37
2018-11-06T13:15:11.551Z,11.17
2018-11-06T13:17:39.162Z,10.57
2018-11-06T13:20:08.638Z,11.17
2018-11-06T13:22:36.418Z,10.77
2018-11-06T13:25:04.549Z,11.00
2018-11-06T13:27:32.205Z,11.07
2018-11-06T13:29:59.835Z,12.10
2018-11-06T13:32:27.465Z,10.57
2018-11-06T13:34:55.092Z,11.83
2018-11-06T13:37:22.752Z,10.43
2018-11-06T13:39:50.352Z,10.67
2018-11-06T13:42:17.968Z,9.57
2018-11-06T13:44:45.779Z,10.23
2018-11-06T13:47:13.172Z,9.57
2018-11-06T13:49:40.751Z,9.73
2018-11-06T13:52:08.465Z,9.83
2018-11-06T13:54:36.004Z,11.40
2018-11-06T13:57:03.630Z,10.87
2018-11-06T13:59:31.191Z,10.37
2018-11-06T14:01:58.739Z,10.93
2018-11-06T14:04:26.396Z,11.07
2018-11-06T14:06:53.927Z,8.70
2018-11-06T14:09:21.537Z,11.77
2018-11-06T14:11:49.099Z,12.40
2018-11-06T14:14:16.640Z,11.60
2018-11-06T14:16:44.216Z,11.53
2018-11-06T14:19:11.807Z,11.63
2018-11-06T14:21:39.398Z,10.77
2018-11-06T14:24:07.003Z,10.77
2018-11-06T14:26:34.599Z,11.63
2018-11-06T14:29:02.184Z,11.47
2018-11-06T14:31:29.822Z,11.90
2018-11-06T14:33:57.389Z,10.50
2018-11-06T14:36:25.027Z,12.03
2018-11-06T14:38:52.676Z,11.27
2018-11-06T14:41:21.182Z,10.63
2018-11-06T14:43:48.759Z,10.93
2018-11-06T14:46:16.345Z,11.70
2018-11-06T14:48:44.058Z,11.60
2018-11-06T14:51:11.551Z,12.67
2018-11-06T14:53:39.106Z,12.90
2018-11-06T14:56:06.768Z,12.17
2018-11-06T14:58:34.406Z,11.87
2018-11-06T15:01:01.995Z,12.73
2018-11-06T15:03:29.632Z,11.30
2018-11-06T15:05:57.252Z,12.70
2018-11-06T15:08:24.847Z,10.53
2018-11-06T15:10:52.454Z,12.27
2018-11-06T15:13:20.010Z,11.70
2018-11-06T15:15:47.642Z,12.07
2018-11-06T15:18:15.215Z,12.37
2018-11-06T15:20:42.804Z,12.53
2018-11-06T15:23:10.329Z,18.33
2018-11-06T15:25:37.974Z,11.60
2018-11-06T15:28:05.548Z,11.23
2018-11-06T15:30:33.175Z,11.17
2018-11-06T15:33:00.779Z,10.30
2018-11-06T15:35:28.421Z,12.23
2018-11-06T15:37:56.174Z,10.90
2018-11-06T15:40:23.839Z,11.93
2018-11-06T15:42:51.440Z,11.93
2018-11-06T15:45:19.499Z,11.40
2018-11-06T15:47:47.428Z,11.03
2018-11-06T15:50:16.289Z,10.13
2018-11-06T15:52:44.855Z,9.07
2018-11-06T15:55:12.543Z,9.17
2018-11-06T15:57:40.217Z,9.73
2018-11-06T16:00:16.075Z,9.57
2018-11-06T16:02:44.241Z,9.07
2018-11-06T16:05:11.982Z,9.50
2018-11-06T16:07:39.800Z,9.07
2018-11-06T16:10:09.691Z,7.93
2018-11-06T16:12:37.423Z,7.37
2018-11-06T16:15:06.176Z,7.07
2018-11-06T16:17:34.200Z,7.17
2018-11-06T16:20:01.838Z,5.90
2018-11-06T16:22:29.866Z,6.23
2018-11-06T16:24:57.457Z,6.70
2018-11-06T16:27:25.147Z,8.13
2018-11-06T16:29:52.762Z,8.47
2018-11-06T16:32:20.458Z,7.80
2018-11-06T16:34:48.186Z,7.10
2018-11-06T16:37:15.880Z,7.30
2018-11-06T16:39:43.479Z,6.93
2018-11-06T16:42:11.108Z,7.57
2018-11-06T16:44:38.754Z,7.30
2018-11-06T16:47:06.395Z,8.10
2018-11-06T16:49:34.022Z,6.90
2018-11-06T16:52:01.683Z,7.80
2018-11-06T16:54:29.279Z,7.73
2018-11-06T16:56:56.945Z,7.60
2018-11-06T16:59:24.528Z,8.20
2018-11-06T17:01:52.091Z,7.13
2018-11-06T17:04:19.924Z,6.80
2018-11-06T17:06:48.682Z,6.63
2018-11-06T17:09:16.498Z,6.63
2018-11-06T17:11:44.172Z,6.03
2018-11-06T17:14:12.006Z,6.30
2018-11-06T17:16:39.630Z,6.23
2018-11-06T17:19:07.937Z,6.27
2018-11-06T17:21:35.630Z,6.23
2018-11-06T17:24:03.280Z,6.20
2018-11-06T17:26:31.290Z,6.40
2018-11-06T17:28:59.061Z,6.00
2018-11-06T17:31:26.670Z,6.50
2018-11-06T17:33:54.278Z,7.23
2018-11-06T17:36:21.854Z,7.20
2018-11-06T17:38:49.461Z,7.60
2018-11-06T17:41:17.104Z,6.80
2018-11-06T17:43:44.736Z,6.90
2018-11-06T17:46:12.803Z,7.53
2018-11-06T17:48:40.454Z,7.37
2018-11-06T17:51:08.200Z,7.10
2018-11-06T17:53:35.843Z,7.17
2018-11-06T17:56:03.470Z,7.07
2018-11-06T17:58:31.083Z,6.93
2018-11-06T18:00:58.680Z,7.37
2018-11-06T18:03:26.274Z,7.43
2018-11-06T18:05:53.861Z,7.67
2018-11-06T18:08:21.425Z,7.80
2018-11-06T18:10:49.046Z,7.20
2018-11-06T18:13:16.630Z,7.23
2018-11-06T18:15:44.259Z,8.00
2018-11-06T18:18:11.978Z,7.40
2018-11-06T18:20:39.583Z,7.27
2018-11-06T18:23:07.158Z,5.83
2018-11-06T18:25:34.945Z,8.17
2018-11-06T18:28:02.422Z,7.07
2018-11-06T18:30:30.044Z,7.07
2018-11-06T18:32:57.652Z,7.23
2018-11-06T18:35:25.227Z,7.93
2018-11-06T18:37:52.835Z,9.60
2018-11-06T18:40:20.441Z,9.00
2018-11-06T18:42:48.818Z,6.73
2018-11-06T18:45:16.599Z,7.40
2018-11-06T18:47:44.438Z,7.00
2018-11-06T18:50:14.431Z,7.20
2018-11-06T18:52:43.334Z,6.03
2018-11-06T18:55:11.023Z,7.17
2018-11-06T18:57:38.643Z,7.10
2018-11-06T19:00:08.352Z,8.10
2018-11-06T19:02:35.961Z,8.40
2018-11-06T19:05:03.642Z,8.37
2018-11-06T19:07:31.273Z,9.00
2018-11-06T19:09:58.846Z,8.60
2018-11-06T19:12:26.505Z,7.20
2018-11-06T19:14:54.190Z,6.93
2018-11-06T19:17:21.740Z,7.47
2018-11-06T19:19:49.386Z,7.60
2018-11-06T19:22:16.985Z,8.63
2018-11-06T19:24:44.621Z,8.97
2018-11-06T19:27:12.251Z,7.77
2018-11-06T19:29:39.862Z,8.17
2018-11-06T19:32:07.655Z,7.83
2018-11-06T19:34:35.287Z,7.67
2018-11-06T19:37:03.131Z,7.10
2018-11-06T19:39:30.776Z,7.47
2018-11-06T19:41:58.394Z,7.73
2018-11-06T19:44:26.010Z,8.10
2018-11-06T19:46:53.643Z,6.83
2018-11-06T19:49:21.380Z,9.00
2018-11-06T19:51:49.127Z,9.27
2018-11-06T19:54:16.855Z,9.17
2018-11-06T19:56:44.489Z,9.47
2018-11-06T19:59:12.198Z,9.80
2018-11-06T20:01:39.952Z,8.93
2018-11-06T20:04:07.686Z,7.83
2018-11-06T20:06:36.491Z,8.03
2018-11-06T20:09:06.539Z,10.67
2018-11-06T20:11:34.333Z,9.03
2018-11-06T20:14:01.930Z,9.67
2018-11-06T20:16:29.650Z,11.67
2018-11-06T20:18:57.434Z,12.83
2018-11-06T20:21:25.128Z,11.57
2018-11-06T20:23:52.793Z,12.10
2018-11-06T20:26:20.434Z,12.87
2018-11-06T20:28:48.132Z,11.60
2018-11-06T20:31:15.736Z,12.47
2018-11-06T20:33:43.734Z,13.13
2018-11-06T20:36:11.207Z,12.43
2018-11-06T20:38:38.912Z,11.93
2018-11-06T20:41:06.757Z,11.57
2018-11-06T20:43:34.334Z,10.23
2018-11-06T20:46:02.005Z,10.60
2018-11-06T20:48:29.667Z,9.00
2018-11-06T20:50:57.387Z,9.27
2018-11-06T20:53:25.026Z,10.77
2018-11-06T20:55:52.682Z,12.33
2018-11-06T20:58:20.346Z,12.30
2018-11-06T21:00:47.959Z,10.53
2018-11-06T21:03:15.647Z,10.13
2018-11-06T21:05:43.394Z,7.87
2018-11-06T21:08:11.110Z,8.87
2018-11-06T21:10:38.837Z,8.90
2018-11-06T21:13:06.545Z,10.00
2018-11-06T21:15:34.199Z,9.40
2018-11-06T21:18:02.008Z,8.73
2018-11-06T21:20:29.650Z,10.03
2018-11-06T21:22:57.269Z,9.93
2018-11-06T21:25:24.970Z,9.63
2018-11-06T21:27:52.555Z,8.27
2018-11-06T21:30:20.751Z,7.87
2018-11-06T21:32:49.525Z,9.10
2018-11-06T21:35:17.100Z,7.70
2018-11-06T21:37:44.730Z,7.63
2018-11-06T21:40:13.950Z,7.00
2018-11-06T21:42:42.118Z,6.83
2018-11-06T21:45:10.892Z,7.07
2018-11-06T21:47:38.805Z,7.63
2018-11-06T21:50:08.164Z,6.43
2018-11-06T21:52:35.822Z,6.00
2018-11-06T21:55:04.170Z,6.07
2018-11-06T21:57:31.875Z,7.67
2018-11-06T21:59:59.507Z,7.67
2018-11-06T22:02:27.121Z,7.17
2018-11-06T22:04:54.750Z,6.87
2018-11-06T22:07:22.357Z,7.07
2018-11-06T22:09:50.012Z,8.63
2018-11-06T22:12:17.692Z,8.20
2018-11-06T22:14:45.277Z,8.17
2018-11-06T22:17:13.143Z,7.33
2018-11-06T22:19:40.899Z,6.70
2018-11-06T22:22:08.609Z,5.97
2018-11-06T22:24:36.186Z,5.60
2018-11-06T22:27:03.866Z,6.47
2018-11-06T22:29:31.764Z,6.87
2018-11-06T22:31:59.370Z,7.63
2018-11-06T22:34:26.977Z,7.10
2018-11-06T22:36:54.568Z,6.67
2018-11-06T22:39:22.219Z,8.73
2018-11-06T22:41:49.833Z,7.20
2018-11-06T22:44:17.423Z,9.70
2018-11-06T22:46:45.052Z,10.57
2018-11-06T22:49:13.224Z,7.87
2018-11-06T22:51:40.889Z,8.53
2018-11-06T22:54:08.557Z,8.90
2018-11-06T22:56:36.158Z,9.13
2018-11-06T22:59:03.722Z,8.30
2018-11-06T23:01:31.342Z,9.80
2018-11-06T23:03:59.018Z,10.57
2018-11-06T23:06:26.758Z,8.90
2018-11-06T23:08:54.322Z,9.97
2018-11-06T23:11:22.025Z,9.43
2018-11-06T23:13:49.624Z,7.60
2018-11-06T23:16:17.233Z,10.37
2018-11-06T23:18:44.787Z,7.47
2018-11-06T23:21:12.383Z,9.33
2018-11-06T23:23:40.034Z,9.80
2018-11-06T23:26:07.732Z,11.13
2018-11-06T23:28:35.322Z,8.20
2018-11-06T23:31:02.931Z,10.40
2018-11-06T23:33:30.514Z,10.43
2018-11-06T23:35:58.122Z,10.73
2018-11-06T23:38:25.732Z,11.00
2018-11-06T23:40:53.391Z,9.77
2018-11-06T23:43:21.090Z,9.33
2018-11-06T23:45:48.746Z,10.27
2018-11-06T23:48:16.309Z,9.17
2018-11-06T23:50:43.902Z,8.70
2018-11-06T23:53:11.540Z,9.57
2018-11-06T23:55:39.110Z,7.47
2018-11-06T23:58:06.698Z,7.80
